Time;durP1;ratioP1;P1;durP2;ratioP2;P2;SDS_P1;SDS_P2;PMS_P1;PMS_P2;Temp;Humidity;BMP_temperature;BMP_pressure;BME280_temperature;BME280_humidity;BME280_pressure;Samples;Min_cycle;Max_cycle;Signal;HPM_P1;HPM_P2
2021/10/07 00:00:44;;;;;;;1.40;1.27;;;8.10;99.90;;;;;;4982227;28;20031;-85
2021/10/07 00:03:10;;;;;;;3.15;1.23;;;8.10;99.90;;;;;;4994271;28;20116;-85
2021/10/07 00:05:36;;;;;;;1.38;1.25;;;8.00;99.90;;;;;;5020055;28;20033;-85
2021/10/07 00:08:02;;;;;;;2.45;1.45;;;8.00;99.90;;;;;;4989853;28;20058;-85
2021/10/07 00:10:28;;;;;;;1.80;1.23;;;8.00;99.90;;;;;;5011066;28;20580;-85
2021/10/07 00:12:54;;;;;;;1.75;1.30;;;8.00;99.90;;;;;;4991383;28;20030;-85
2021/10/07 00:15:20;;;;;;;3.17;1.30;;;8.00;99.90;;;;;;5017092;28;20399;-85
2021/10/07 00:21:08;;;;;;;1.20;1.08;;;8.00;99.90;;;;;;4962947;23;20109;-86
2021/10/07 00:23:49;;;;;;;2.75;1.65;;;8.10;99.90;;;;;;4959573;28;20169;-85
2021/10/07 00:26:15;;;;;;;1.77;1.25;;;8.10;99.90;;;;;;4957675;28;20042;-86
2021/10/07 00:28:41;;;;;;;1.83;1.52;;;8.20;99.90;;;;;;4975142;28;20035;-86
2021/10/07 00:31:12;;;;;;;1.45;1.23;;;8.20;99.90;;;;;;4974988;28;20038;-85
2021/10/07 00:34:06;;;;;;;2.97;1.30;;;8.30;99.90;;;;;;4958717;28;20030;-86
2021/10/07 00:36:40;;;;;;;1.40;1.20;;;8.30;99.90;;;;;;4946254;28;20516;-86
2021/10/07 00:39:06;;;;;;;1.50;1.30;;;8.30;99.90;;;;;;4945865;28;20443;-85
2021/10/07 00:41:40;;;;;;;1.48;1.27;;;8.40;99.90;;;;;;4974893;28;20110;-86
2021/10/07 00:44:08;;;;;;;2.55;1.15;;;8.40;99.90;;;;;;4958723;28;20089;-86
2021/10/07 00:46:54;;;;;;;3.13;1.23;;;8.40;99.90;;;;;;4943009;28;20553;-86
2021/10/07 00:49:20;;;;;;;;;;;8.40;99.90;;;;;;4959050;28;20065;-86
2021/10/07 00:51:46;;;;;;;1.70;1.30;;;8.40;99.90;;;;;;4942623;28;20376;-86
2021/10/07 00:54:17;;;;;;;1.58;1.10;;;8.40;99.90;;;;;;4943884;28;20066;-86
2021/10/07 00:56:44;;;;;;;2.38;1.40;;;8.40;99.90;;;;;;4936611;28;20045;-85
2021/10/07 00:59:11;;;;;;;1.60;1.45;;;8.50;99.90;;;;;;4941447;28;20043;-86
2021/10/07 01:01:36;;;;;;;1.80;1.38;;;8.50;99.90;;;;;;4941471;28;20129;-86
2021/10/07 01:04:02;;;;;;;3.05;1.35;;;8.50;99.90;;;;;;4942036;28;20138;-86
2021/10/07 01:06:29;;;;;;;1.73;1.20;;;8.50;99.90;;;;;;4942483;28;20062;-87
2021/10/07 01:08:55;;;;;;;3.83;1.65;;;8.50;99.90;;;;;;4958454;28;20469;-86
2021/10/07 01:11:21;;;;;;;1.45;1.27;;;8.50;99.90;;;;;;4951837;28;20069;-86
2021/10/07 01:13:46;;;;;;;2.28;1.50;;;8.50;99.90;;;;;;4926259;28;20039;-86
2021/10/07 01:16:12;;;;;;;6.28;1.90;;;8.60;99.90;;;;;;4941965;28;20031;-86
2021/10/07 01:18:38;;;;;;;5.70;1.88;;;8.60;99.90;;;;;;4942251;28;20038;-86
2021/10/07 01:21:03;;;;;;;2.17;1.90;;;8.50;99.90;;;;;;4941920;28;20054;-85
2021/10/07 01:23:30;;;;;;;2.67;1.83;;;8.40;99.90;;;;;;4941902;28;20413;-86
2021/10/07 01:25:55;;;;;;;1.73;1.60;;;8.30;99.90;;;;;;4974066;28;20045;-85
2021/10/07 01:28:21;;;;;;;3.00;1.63;;;8.40;99.90;;;;;;4958067;28;20027;-86
2021/10/07 01:30:47;;;;;;;2.65;1.67;;;8.30;99.90;;;;;;4928061;28;20500;-86
2021/10/07 01:33:12;;;;;;;1.70;1.60;;;8.30;99.90;;;;;;4942109;28;20062;-86
2021/10/07 01:35:38;;;;;;;3.25;1.67;;;8.30;99.90;;;;;;4941808;28;20039;-86
2021/10/07 01:38:04;;;;;;;2.60;1.50;;;8.40;99.90;;;;;;4956455;28;20031;-85
2021/10/07 01:40:31;;;;;;;2.38;1.58;;;8.40;99.90;;;;;;4941866;28;20062;-87
2021/10/07 01:42:57;;;;;;;2.35;1.40;;;8.50;99.90;;;;;;4957639;28;20539;-86
2021/10/07 01:45:23;;;;;;;2.03;1.10;;;8.50;99.90;;;;;;4957697;28;20401;-86
2021/10/07 01:47:49;;;;;;;4.82;1.30;;;8.60;99.90;;;;;;4957541;28;20121;-86
2021/10/07 01:50:15;;;;;;;2.75;1.10;;;8.60;99.90;;;;;;4941582;28;20034;-86
2021/10/07 01:52:42;;;;;;;6.75;1.42;;;8.60;99.90;;;;;;4957573;28;20069;-86
2021/10/07 01:55:09;;;;;;;1.20;1.10;;;8.60;99.90;;;;;;4957846;28;20038;-86
2021/10/07 01:57:36;;;;;;;1.50;1.13;;;8.60;99.90;;;;;;4957661;28;20641;-85
2021/10/07 02:00:06;;;;;;;2.88;1.42;;;8.60;99.90;;;;;;4941279;28;20523;-85
2021/10/07 02:02:37;;;;;;;1.30;1.20;;;8.60;99.90;;;;;;4964485;28;20035;-86
2021/10/07 02:05:03;;;;;;;1.52;0.95;;;8.60;99.90;;;;;;4922563;29;20035;-86
2021/10/07 02:07:28;;;;;;;1.45;1.35;;;8.60;99.90;;;;;;4938193;29;20034;-86
2021/10/07 02:09:54;;;;;;;3.20;1.80;;;8.70;99.90;;;;;;4938344;29;20051;-85
2021/10/07 02:12:20;;;;;;;3.47;1.40;;;8.60;99.90;;;;;;4941115;28;20034;-86
2021/10/07 02:14:45;;;;;;;1.70;1.42;;;8.60;99.90;;;;;;4941488;28;20125;-85
2021/10/07 02:17:11;;;;;;;1.65;1.20;;;8.60;99.90;;;;;;4941493;28;20644;-86
2021/10/07 02:19:37;;;;;;;1.30;1.17;;;8.60;99.90;;;;;;4941107;28;20042;-86
2021/10/07 02:22:03;;;;;;;3.10;1.70;;;8.60;99.90;;;;;;4969187;28;20041;-85
2021/10/07 02:24:29;;;;;;;2.20;1.33;;;8.60;99.90;;;;;;4941009;28;20035;-85
2021/10/07 02:26:55;;;;;;;1.33;1.23;;;8.60;99.90;;;;;;4957273;28;20034;-86
2021/10/07 02:29:21;;;;;;;2.58;1.63;;;8.60;99.90;;;;;;4941321;28;20534;-85
2021/10/07 02:31:46;;;;;;;4.05;1.60;;;8.60;99.90;;;;;;4937676;29;20117;-86
2021/10/07 02:34:12;;;;;;;4.72;1.45;;;8.60;99.90;;;;;;4937605;29;20030;-86
2021/10/07 02:36:38;;;;;;;2.08;1.63;;;8.50;99.90;;;;;;4956703;28;20042;-86
2021/10/07 02:39:04;;;;;;;3.63;1.73;;;8.50;99.90;;;;;;4940687;28;20027;-86
2021/10/07 02:41:31;;;;;;;1.67;1.42;;;8.50;99.90;;;;;;4932398;28;20110;-86
2021/10/07 02:43:57;;;;;;;2.75;1.55;;;8.50;99.90;;;;;;4927867;29;20435;-86
2021/10/07 02:46:23;;;;;;;2.53;2.10;;;8.50;99.90;;;;;;4937402;29;20557;-86
2021/10/07 02:48:49;;;;;;;2.97;1.70;;;8.50;99.90;;;;;;4936962;29;20077;-86
2021/10/07 02:51:14;;;;;;;2.38;1.63;;;8.50;99.90;;;;;;4954941;28;20026;-86
2021/10/07 02:53:40;;;;;;;1.77;1.42;;;8.50;99.90;;;;;;4945276;28;20043;-86
2021/10/07 02:56:06;;;;;;;2.63;1.70;;;8.60;99.90;;;;;;4938477;28;20067;-86
2021/10/07 02:58:34;;;;;;;3.05;1.40;;;8.50;99.90;;;;;;4940532;28;20082;-86
2021/10/07 03:01:00;;;;;;;1.48;1.38;;;8.50;99.90;;;;;;4943872;28;20039;-86
2021/10/07 03:03:26;;;;;;;2.08;1.50;;;8.60;99.90;;;;;;4950704;28;20038;-86
2021/10/07 03:05:52;;;;;;;1.52;1.30;;;8.60;99.90;;;;;;4956783;28;20023;-86
2021/10/07 03:08:18;;;;;;;1.88;1.50;;;8.60;99.90;;;;;;4942571;28;20029;-85
2021/10/07 03:10:44;;;;;;;1.92;1.55;;;8.60;99.90;;;;;;4924308;28;20446;-85
2021/10/07 03:13:10;;;;;;;2.42;1.55;;;8.60;99.90;;;;;;4940177;28;20050;-86
2021/10/07 03:15:35;;;;;;;4.85;1.30;;;8.60;99.90;;;;;;4924120;28;20084;-86
2021/10/07 03:18:02;;;;;;;1.45;1.27;;;8.60;99.90;;;;;;4956037;28;20039;-86
2021/10/07 03:20:28;;;;;;;2.53;1.17;;;8.60;99.90;;;;;;4939750;28;20031;-86
2021/10/07 03:22:54;;;;;;;1.90;1.55;;;8.60;99.90;;;;;;4943312;28;20039;-85
2021/10/07 03:25:21;;;;;;;1.50;1.40;;;8.60;99.90;;;;;;4959277;28;20107;-86
2021/10/07 03:27:46;;;;;;;2.10;1.20;;;8.60;99.90;;;;;;4975111;28;20121;-86
2021/10/07 03:30:12;;;;;;;2.67;1.20;;;8.50;99.90;;;;;;4942912;28;20596;-86
2021/10/07 03:32:38;;;;;;;2.38;1.30;;;8.50;99.90;;;;;;4942955;28;20039;-86
2021/10/07 03:35:04;;;;;;;3.15;1.50;;;8.50;99.90;;;;;;4974942;28;20106;-86
2021/10/07 03:37:30;;;;;;;4.63;2.80;;;8.40;99.90;;;;;;4955757;28;20030;-86
2021/10/07 03:39:56;;;;;;;11.07;5.25;;;8.40;99.90;;;;;;4939793;28;20038;-85
2021/10/07 03:42:21;;;;;;;11.05;5.28;;;8.40;99.90;;;;;;4939666;28;20115;-86
2021/10/07 03:44:48;;;;;;;6.28;3.35;;;8.40;99.90;;;;;;4936252;29;20055;-86
2021/10/07 03:47:14;;;;;;;4.28;3.05;;;8.40;99.90;;;;;;4936552;29;20541;-85
2021/10/07 03:49:40;;;;;;;4.60;2.42;;;8.40;99.90;;;;;;4938832;28;20030;-84
2021/10/07 03:52:05;;;;;;;3.90;2.20;;;8.50;99.90;;;;;;4929942;28;20031;-84
2021/10/07 03:54:31;;;;;;;5.75;2.25;;;8.40;99.90;;;;;;4938279;28;20130;-84
2021/10/07 03:56:57;;;;;;;4.00;2.00;;;8.50;99.90;;;;;;4941478;28;20027;-86
2021/10/07 03:59:22;;;;;;;6.00;1.88;;;8.50;99.90;;;;;;4938466;28;20062;-86
2021/10/07 04:01:48;;;;;;;7.32;1.88;;;8.40;99.90;;;;;;4939195;28;20025;-84
2021/10/07 04:04:14;;;;;;;2.10;1.70;;;8.50;99.90;;;;;;4929850;28;20034;-85
2021/10/07 04:06:40;;;;;;;2.58;1.45;;;8.50;99.90;;;;;;4955345;28;20052;-85
2021/10/07 04:09:05;;;;;;;1.67;1.23;;;8.50;99.90;;;;;;4939096;28;20540;-86
2021/10/07 04:11:31;;;;;;;1.33;1.00;;;8.50;99.90;;;;;;4945694;28;20038;-85
2021/10/07 04:13:57;;;;;;;2.58;1.45;;;8.40;99.90;;;;;;4938036;28;20581;-88
2021/10/07 04:16:22;;;;;;;2.00;0.95;;;8.40;99.90;;;;;;4939233;28;20552;-84
2021/10/07 04:18:48;;;;;;;1.52;1.40;;;8.30;99.90;;;;;;4939000;28;20113;-85
2021/10/07 04:21:14;;;;;;;2.15;1.27;;;8.30;99.90;;;;;;4943171;28;20031;-85
2021/10/07 04:23:39;;;;;;;3.42;1.20;;;8.30;99.90;;;;;;4936952;28;20035;-85
2021/10/07 04:26:07;;;;;;;2.58;1.70;;;8.30;99.90;;;;;;4954951;28;20624;-85
2021/10/07 04:28:34;;;;;;;4.15;1.60;;;8.30;99.90;;;;;;4920500;29;20642;-85
2021/10/07 04:31:00;;;;;;;2.35;1.38;;;8.30;99.90;;;;;;4938836;28;20035;-85
2021/10/07 04:33:26;;;;;;;1.70;1.38;;;8.30;99.90;;;;;;4955478;28;20053;-86
2021/10/07 04:35:52;;;;;;;2.42;1.42;;;8.30;99.90;;;;;;4953949;28;20412;-87
2021/10/07 04:38:17;;;;;;;4.25;2.17;;;8.30;99.90;;;;;;4937982;28;20035;-84
2021/10/07 04:40:43;;;;;;;2.20;1.60;;;8.30;99.90;;;;;;4944875;28;20634;-85
2021/10/07 04:43:09;;;;;;;1.20;0.90;;;8.40;99.90;;;;;;4922047;28;20051;-85
2021/10/07 04:45:35;;;;;;;1.77;0.80;;;8.40;99.90;;;;;;4937816;28;20023;-85
2021/10/07 04:48:00;;;;;;;1.17;1.08;;;8.40;99.90;;;;;;4938852;28;20412;-85
2021/10/07 04:50:26;;;;;;;2.45;0.80;;;8.40;99.90;;;;;;4954478;28;20033;-86
2021/10/07 04:52:52;;;;;;;2.00;1.42;;;8.40;99.90;;;;;;4955585;28;20114;-86
2021/10/07 04:55:19;;;;;;;1.50;1.20;;;8.40;99.90;;;;;;4954946;28;20046;-85
2021/10/07 04:57:45;;;;;;;3.67;1.98;;;8.30;99.90;;;;;;4941328;28;20039;-85
2021/10/07 05:00:11;;;;;;;2.17;1.50;;;8.30;99.90;;;;;;4939345;28;20042;-86
2021/10/07 05:02:38;;;;;;;3.03;1.30;;;8.30;99.90;;;;;;4962989;28;20041;-85
2021/10/07 05:05:05;;;;;;;1.65;1.50;;;8.30;99.90;;;;;;4934890;28;20560;-84
2021/10/07 05:07:31;;;;;;;3.03;1.42;;;8.20;99.90;;;;;;4961354;28;20039;-86
2021/10/07 05:09:58;;;;;;;2.55;1.38;;;8.20;99.90;;;;;;4940193;28;20038;-86
2021/10/07 05:12:23;;;;;;;2.28;1.98;;;8.30;99.90;;;;;;4937878;29;20406;-85
2021/10/07 05:14:49;;;;;;;2.70;2.10;;;8.30;99.90;;;;;;4946941;28;20023;-85
2021/10/07 05:17:15;;;;;;;3.35;2.15;;;8.30;99.90;;;;;;4942170;28;20110;-85
2021/10/07 05:19:40;;;;;;;3.47;1.63;;;8.30;99.90;;;;;;4941570;28;20039;-84
2021/10/07 05:22:06;;;;;;;3.50;1.48;;;8.40;99.90;;;;;;4935239;28;20043;-84
2021/10/07 05:24:32;;;;;;;4.93;1.75;;;8.30;99.90;;;;;;4962169;28;20055;-84
2021/10/07 05:26:58;;;;;;;2.60;2.20;;;8.40;99.90;;;;;;4956232;28;20062;-84
2021/10/07 05:29:23;;;;;;;5.32;1.85;;;8.30;99.90;;;;;;4925685;28;20061;-85
2021/10/07 05:31:49;;;;;;;3.97;2.45;;;8.30;99.90;;;;;;4942637;29;20027;-84
2021/10/07 05:34:16;;;;;;;2.08;1.85;;;8.40;99.90;;;;;;4920847;28;20042;-86
2021/10/07 05:36:43;;;;;;;4.78;1.38;;;8.40;99.90;;;;;;4928570;28;20073;-85
2021/10/07 05:39:09;;;;;;;0.88;0.85;;;8.40;99.90;;;;;;4954956;28;20031;-84
2021/10/07 05:41:34;;;;;;;2.33;1.15;;;8.40;99.90;;;;;;4956613;28;20125;-84
2021/10/07 05:44:00;;;;;;;1.77;1.02;;;8.40;99.90;;;;;;4939147;28;20209;-85
2021/10/07 05:46:26;;;;;;;2.17;1.20;;;8.40;99.90;;;;;;4974200;28;20023;-85
2021/10/07 05:48:51;;;;;;;2.08;1.20;;;8.50;99.90;;;;;;4940525;28;20030;-86
2021/10/07 05:51:18;;;;;;;2.05;1.10;;;8.50;99.90;;;;;;4956454;28;20114;-84
2021/10/07 05:53:44;;;;;;;2.65;1.23;;;8.50;99.90;;;;;;4926151;28;20121;-84
2021/10/07 05:56:10;;;;;;;1.63;1.20;;;8.50;99.90;;;;;;4929568;28;20604;-85
2021/10/07 05:58:35;;;;;;;3.30;1.38;;;8.40;99.90;;;;;;4930915;28;20038;-84
2021/10/07 06:01:01;;;;;;;3.88;1.73;;;8.40;99.90;;;;;;4925694;28;20046;-84
2021/10/07 06:03:27;;;;;;;3.95;1.55;;;8.40;99.90;;;;;;4939888;28;20089;-85
2021/10/07 06:05:52;;;;;;;4.40;1.60;;;8.40;99.90;;;;;;4925825;28;20046;-84
2021/10/07 06:08:18;;;;;;;1.67;1.40;;;8.40;99.90;;;;;;4924307;28;20035;-84
2021/10/07 06:10:44;;;;;;;1.98;1.67;;;8.40;99.90;;;;;;4956491;28;20031;-85
2021/10/07 06:13:09;;;;;;;1.60;1.50;;;8.40;99.90;;;;;;4974315;28;20038;-85
2021/10/07 06:15:35;;;;;;;2.65;1.65;;;8.50;99.90;;;;;;4956007;28;20031;-83
2021/10/07 06:18:01;;;;;;;2.90;1.70;;;8.50;99.90;;;;;;4940480;28;20133;-86
2021/10/07 06:20:34;;;;;;;1.90;1.67;;;8.60;99.90;;;;;;4944274;28;20046;-89
2021/10/07 06:23:03;;;;;;;2.08;1.30;;;8.60;99.90;;;;;;4924101;28;20110;-85
2021/10/07 06:25:30;;;;;;;1.65;1.25;;;8.70;99.90;;;;;;4940360;28;20496;-85
2021/10/07 06:27:56;;;;;;;1.33;1.23;;;8.70;99.90;;;;;;4941390;28;20030;-84
2021/10/07 06:30:22;;;;;;;2.40;1.55;;;8.70;99.90;;;;;;4947268;28;20031;-84
2021/10/07 06:32:49;;;;;;;2.55;1.55;;;8.80;99.90;;;;;;4939664;28;20027;-84
2021/10/07 06:35:16;;;;;;;1.95;1.65;;;8.80;99.90;;;;;;4921248;28;20054;-84
2021/10/07 06:37:42;;;;;;;4.07;2.63;;;8.90;99.90;;;;;;4955153;28;20034;-85
2021/10/07 06:40:09;;;;;;;3.78;3.00;;;8.90;99.90;;;;;;4955268;28;20045;-84
2021/10/07 06:42:35;;;;;;;1.92;1.60;;;8.90;99.90;;;;;;4955605;28;20070;-84
2021/10/07 06:45:04;;;;;;;2.30;1.48;;;9.00;99.90;;;;;;4950175;28;20063;-84
2021/10/07 06:47:30;;;;;;;1.20;1.10;;;9.10;99.90;;;;;;4955983;28;20029;-85
2021/10/07 06:49:56;;;;;;;1.58;1.02;;;9.20;99.90;;;;;;4955931;28;20432;-86
2021/10/07 06:52:22;;;;;;;2.55;1.20;;;9.20;99.90;;;;;;4955888;28;20027;-85
2021/10/07 06:54:47;;;;;;;2.03;1.13;;;9.30;99.90;;;;;;4938548;28;20656;-84
2021/10/07 06:57:13;;;;;;;1.15;1.05;;;9.30;99.90;;;;;;4936934;28;20047;-85
2021/10/07 06:59:38;;;;;;;2.20;0.90;;;9.40;99.90;;;;;;4936681;29;20038;-84
2021/10/07 07:02:04;;;;;;;1.92;1.42;;;9.40;99.90;;;;;;4931660;29;20547;-86
2021/10/07 07:04:30;;;;;;;1.95;0.73;;;9.50;99.90;;;;;;4937423;28;20059;-84
2021/10/07 07:06:56;;;;;;;3.28;2.30;;;9.60;99.90;;;;;;4961325;28;20031;-85
2021/10/07 07:09:21;;;;;;;2.83;2.00;;;9.60;99.90;;;;;;4939655;28;20088;-85
2021/10/07 07:11:47;;;;;;;4.03;2.30;;;9.60;99.90;;;;;;4955885;28;20026;-85
2021/10/07 07:14:13;;;;;;;4.45;3.38;;;9.60;99.90;;;;;;4938947;28;20144;-85
2021/10/07 07:16:39;;;;;;;6.07;3.25;;;9.70;99.90;;;;;;4939012;28;20129;-85
2021/10/07 07:19:05;;;;;;;6.80;3.47;;;9.70;99.90;;;;;;4949951;28;20043;-85
2021/10/07 07:21:33;;;;;;;6.70;3.85;;;9.80;99.90;;;;;;4942261;28;20042;-86
2021/10/07 07:24:00;;;;;;;3.70;3.15;;;9.70;99.90;;;;;;4953236;28;20035;-85
2021/10/07 07:26:26;;;;;;;7.00;3.78;;;9.70;99.90;;;;;;4924638;28;20523;-85
2021/10/07 07:28:53;;;;;;;5.18;3.95;;;9.70;99.90;;;;;;4952116;28;20027;-84
2021/10/07 07:31:20;;;;;;;6.68;4.18;;;9.80;99.90;;;;;;4939554;28;20035;-85
2021/10/07 07:33:47;;;;;;;5.13;4.20;;;9.80;99.90;;;;;;4936963;28;21850;-85
2021/10/07 07:36:17;;;;;;;5.47;3.97;;;9.80;99.90;;;;;;4934566;28;20030;-84
2021/10/07 07:38:43;;;;;;;6.95;3.95;;;9.80;99.90;;;;;;4940143;28;20038;-86
2021/10/07 07:41:11;;;;;;;7.15;3.83;;;9.80;99.90;;;;;;4940682;28;20452;-86
2021/10/07 07:43:37;;;;;;;6.00;3.90;;;9.80;99.90;;;;;;4921802;28;20119;-85
2021/10/07 07:46:03;;;;;;;5.18;3.63;;;9.70;99.90;;;;;;4922581;28;20320;-84
2021/10/07 07:48:29;;;;;;;8.77;3.92;;;9.80;99.90;;;;;;4952679;28;20023;-85
2021/10/07 07:50:54;;;;;;;4.47;3.95;;;9.80;99.90;;;;;;4953946;28;20374;-84
2021/10/07 07:53:20;;;;;;;5.38;3.65;;;9.80;99.90;;;;;;4922862;28;20408;-86
2021/10/07 07:55:46;;;;;;;6.25;4.07;;;9.80;99.90;;;;;;4921350;28;20031;-85
2021/10/07 07:58:12;;;;;;;5.57;4.55;;;9.80;99.90;;;;;;4938063;28;20034;-87
2021/10/07 08:00:39;;;;;;;8.40;4.57;;;9.90;99.90;;;;;;4953441;28;20041;-85
2021/10/07 08:03:06;;;;;;;8.20;3.95;;;9.90;99.90;;;;;;4936320;28;20027;-84
2021/10/07 08:05:32;;;;;;;5.53;4.40;;;9.90;99.90;;;;;;4938357;28;20069;-84
2021/10/07 08:07:58;;;;;;;4.25;3.72;;;10.00;99.90;;;;;;4954395;28;20034;-84
2021/10/07 08:10:27;;;;;;;7.57;4.18;;;10.00;99.90;;;;;;4950366;28;20043;-85
2021/10/07 08:12:53;;;;;;;6.55;3.92;;;10.00;99.90;;;;;;4955133;28;20091;-85
2021/10/07 08:15:19;;;;;;;2.72;2.45;;;10.10;99.90;;;;;;4923004;28;20073;-86
2021/10/07 08:17:45;;;;;;;6.07;4.43;;;10.20;99.90;;;;;;4964983;28;20038;-84
2021/10/07 08:20:12;;;;;;;5.25;3.88;;;10.30;99.90;;;;;;4927979;28;20039;-85
2021/10/07 08:22:39;;;;;;;3.95;3.20;;;10.30;99.90;;;;;;4944526;28;20084;-85
2021/10/07 08:25:07;;;;;;;4.25;3.55;;;10.40;99.90;;;;;;4936300;28;20113;-84
2021/10/07 08:27:33;;;;;;;5.13;3.60;;;10.40;99.90;;;;;;4937339;28;20022;-87
2021/10/07 08:29:59;;;;;;;4.75;3.63;;;10.50;99.90;;;;;;4918501;28;20178;-84
2021/10/07 08:32:25;;;;;;;4.97;3.50;;;10.60;99.90;;;;;;4953227;28;20436;-84
2021/10/07 08:34:51;;;;;;;8.50;4.65;;;10.60;99.90;;;;;;4952427;28;20081;-85
2021/10/07 08:37:17;;;;;;;5.50;4.32;;;10.60;99.90;;;;;;4934882;28;20536;-85
2021/10/07 08:39:43;;;;;;;4.43;3.85;;;10.60;99.90;;;;;;4916797;28;20086;-85
2021/10/07 08:42:09;;;;;;;8.63;4.13;;;10.70;99.90;;;;;;4935987;28;20027;-85
2021/10/07 08:44:34;;;;;;;7.72;4.15;;;10.70;99.90;;;;;;4947012;28;20122;-84
2021/10/07 08:47:00;;;;;;;6.00;3.90;;;10.70;99.90;;;;;;4940907;28;20485;-87
2021/10/07 08:49:29;;;;;;;3.58;3.22;;;10.70;99.90;;;;;;4953261;28;20023;-85
2021/10/07 08:51:55;;;;;;;6.32;3.90;;;10.80;99.90;;;;;;4952579;28;20029;-85
2021/10/07 08:54:21;;;;;;;5.75;4.55;;;10.80;99.90;;;;;;4954350;28;20031;-85
2021/10/07 08:56:49;;;;;;;4.85;4.35;;;10.90;99.90;;;;;;4970375;28;20782;-86
2021/10/07 08:59:16;;;;;;;5.65;3.88;;;10.90;99.90;;;;;;4953128;28;20114;-86
2021/10/07 09:01:48;;;;;;;7.10;4.57;;;10.90;99.90;;;;;;4935373;29;20058;-86
2021/10/07 09:04:22;;;;;;;6.45;4.05;;;11.00;99.90;;;;;;4953862;28;20023;-84
2021/10/07 09:06:51;;;;;;;4.25;3.85;;;11.00;99.90;;;;;;4932314;29;20051;-84
2021/10/07 09:09:17;;;;;;;3.92;3.55;;;11.00;99.90;;;;;;4970017;28;20059;-84
2021/10/07 09:11:59;;;;;;;5.93;3.80;;;11.00;99.90;;;;;;4938025;28;20085;-87
2021/10/07 09:14:32;;;;;;;8.45;4.18;;;11.00;99.90;;;;;;4939084;28;20026;-85
2021/10/07 09:17:00;;;;;;;4.20;3.72;;;11.00;99.90;;;;;;4942778;28;20035;-87
2021/10/07 09:19:30;;;;;;;4.32;3.78;;;11.20;99.90;;;;;;4933900;29;20117;-85
2021/10/07 09:21:59;;;;;;;4.07;3.53;;;11.20;99.90;;;;;;4965019;28;20097;-85
2021/10/07 09:24:37;;;;;;;4.70;3.88;;;11.20;99.90;;;;;;4955480;28;20035;-85
2021/10/07 09:27:13;;;;;;;6.65;4.43;;;11.30;99.90;;;;;;4965849;28;20034;-86
2021/10/07 09:29:47;;;;;;;4.78;3.47;;;11.20;99.90;;;;;;4936238;28;20429;-87
2021/10/07 09:32:14;;;;;;;4.65;3.40;;;11.20;99.90;;;;;;4943845;28;20027;-87
2021/10/07 09:34:50;;;;;;;4.70;3.55;;;11.40;99.90;;;;;;4923398;28;20070;-84
2021/10/07 09:37:37;;;;;;;5.57;3.45;;;11.50;99.90;;;;;;4954794;28;20244;-84
2021/10/07 09:40:10;;;;;;;4.18;3.10;;;11.60;99.90;;;;;;4914002;28;20039;-88
2021/10/07 09:42:45;;;;;;;5.70;4.40;;;11.70;99.90;;;;;;4933726;29;20090;-84
2021/10/07 09:45:18;;;;;;;4.72;3.53;;;11.70;99.90;;;;;;4925926;28;20048;-85
2021/10/07 09:47:50;;;;;;;4.40;3.33;;;11.70;99.90;;;;;;4936393;28;20027;-85
2021/10/07 09:50:28;;;;;;;5.70;3.40;;;11.60;99.90;;;;;;4933784;28;20161;-85
2021/10/07 09:53:03;;;;;;;5.40;3.33;;;11.60;99.90;;;;;;4952718;28;20165;-85
2021/10/07 09:55:42;;;;;;;7.50;3.67;;;11.60;99.90;;;;;;4938496;28;20042;-85
2021/10/07 09:58:23;;;;;;;3.40;2.90;;;11.60;99.90;;;;;;4966579;28;20039;-85
2021/10/07 10:00:54;;;;;;;4.22;2.95;;;11.60;99.90;;;;;;4943986;28;20126;-85
2021/10/07 10:03:21;;;;;;;3.38;3.08;;;11.50;99.90;;;;;;4918241;28;20878;-85
2021/10/07 10:05:52;;;;;;;5.18;3.97;;;11.30;99.90;;;;;;4933129;28;20401;-84
2021/10/07 10:08:20;;;;;;;4.75;2.95;;;11.40;99.90;;;;;;4943329;28;20090;-84
2021/10/07 10:10:48;;;;;;;5.00;2.67;;;11.50;99.90;;;;;;4935947;28;20037;-85
2021/10/07 10:13:15;;;;;;;4.05;2.90;;;11.70;99.90;;;;;;4936779;28;20400;-85
2021/10/07 10:15:44;;;;;;;4.78;2.47;;;11.80;99.90;;;;;;4937520;28;20665;-85
2021/10/07 10:18:12;;;;;;;2.67;2.47;;;12.00;99.90;;;;;;4929338;28;20042;-85
2021/10/07 10:20:48;;;;;;;2.70;2.45;;;12.20;99.90;;;;;;4930676;28;20031;-87
2021/10/07 10:23:16;;;;;;;2.33;2.13;;;12.30;99.90;;;;;;4921345;28;20035;-86
2021/10/07 10:26:08;;;;;;;2.75;2.17;;;12.40;99.90;;;;;;4938378;28;20521;-86
2021/10/07 10:28:40;;;;;;;3.45;2.35;;;12.50;99.90;;;;;;4938696;28;20473;-86
2021/10/07 10:31:11;;;;;;;2.63;2.40;;;12.50;99.90;;;;;;4940392;28;20034;-86
2021/10/07 10:33:43;;;;;;;3.53;3.05;;;12.50;99.90;;;;;;4921640;28;20042;-86
2021/10/07 10:36:36;;;;;;;4.35;2.70;;;12.60;99.90;;;;;;4941016;28;20042;-86
2021/10/07 10:39:06;;;;;;;3.25;2.72;;;12.60;99.90;;;;;;4939178;28;20065;-87
2021/10/07 10:41:50;;;;;;;3.92;2.42;;;12.60;99.90;;;;;;4953829;28;20093;-85
2021/10/07 10:44:28;;;;;;;3.00;2.60;;;12.60;99.90;;;;;;4939265;28;20070;-86
2021/10/07 10:47:04;;;;;;;3.97;2.35;;;12.60;99.90;;;;;;4955939;28;20035;-86
2021/10/07 10:49:42;;;;;;;5.78;3.03;;;12.50;99.90;;;;;;4940229;28;20045;-86
2021/10/07 10:52:20;;;;;;;3.63;2.90;;;12.50;99.90;;;;;;4938204;28;20022;-86
2021/10/07 10:54:48;;;;;;;3.38;2.78;;;12.50;99.90;;;;;;4925234;28;20039;-85
2021/10/07 10:57:32;;;;;;;3.75;2.88;;;12.50;99.90;;;;;;4941536;28;20489;-86
2021/10/07 11:00:09;;;;;;;4.22;2.42;;;12.50;99.90;;;;;;4923263;28;20494;-86
2021/10/07 11:02:36;;;;;;;3.22;2.72;;;12.50;99.90;;;;;;4971897;28;20037;-86
2021/10/07 11:05:19;;;;;;;3.20;2.72;;;12.50;99.90;;;;;;4939906;28;20027;-87
2021/10/07 11:07:45;;;;;;;3.38;2.40;;;12.40;99.90;;;;;;4967547;28;20027;-86
2021/10/07 11:10:29;;;;;;;2.75;2.33;;;12.50;99.90;;;;;;4939344;28;20031;-86
2021/10/07 11:12:58;;;;;;;4.05;2.63;;;12.40;99.90;;;;;;4939994;28;20489;-85
2021/10/07 11:15:28;;;;;;;3.08;2.70;;;12.30;99.90;;;;;;4940137;28;20270;-87
2021/10/07 11:17:56;;;;;;;3.10;2.53;;;12.40;99.90;;;;;;4939772;28;20034;-86
2021/10/07 11:20:24;;;;;;;2.97;2.10;;;12.50;99.90;;;;;;4931027;28;20105;-86
2021/10/07 11:23:15;;;;;;;2.05;1.85;;;12.60;99.90;;;;;;4939673;28;20386;-86
2021/10/07 11:25:46;;;;;;;2.00;1.77;;;12.70;99.90;;;;;;4934461;28;20061;-86
2021/10/07 11:28:12;;;;;;;5.18;2.70;;;12.70;99.90;;;;;;4965789;28;20035;-86
2021/10/07 11:30:40;;;;;;;5.43;2.72;;;12.60;99.90;;;;;;4939398;28;20027;-87
2021/10/07 11:33:06;;;;;;;3.70;2.90;;;12.70;99.90;;;;;;4949852;28;20035;-86
2021/10/07 11:35:34;;;;;;;5.43;2.28;;;12.80;99.90;;;;;;4923672;28;20031;-86
2021/10/07 11:38:01;;;;;;;5.28;2.60;;;12.80;99.90;;;;;;4924204;28;20085;-86
2021/10/07 11:40:41;;;;;;;7.22;2.50;;;12.90;99.90;;;;;;4948744;28;20026;-86
2021/10/07 11:43:12;;;;;;;4.13;2.70;;;12.90;99.90;;;;;;4941175;28;20122;-86
2021/10/07 11:45:41;;;;;;;4.75;2.53;;;12.90;99.90;;;;;;4940236;28;20027;-86
2021/10/07 11:48:07;;;;;;;2.65;2.42;;;13.00;99.90;;;;;;4955676;28;20033;-86
2021/10/07 11:50:38;;;;;;;3.03;2.38;;;13.10;99.90;;;;;;4953006;28;20034;-86
2021/10/07 11:53:06;;;;;;;4.55;2.55;;;13.10;99.90;;;;;;4936575;29;20069;-86
2021/10/07 11:55:31;;;;;;;2.85;2.50;;;13.10;99.90;;;;;;4923100;28;20034;-86
2021/10/07 11:58:01;;;;;;;6.47;2.95;;;13.10;99.90;;;;;;4939545;28;20045;-86
2021/10/07 12:00:38;;;;;;;4.60;2.80;;;13.30;99.90;;;;;;4936006;29;20035;-85
2021/10/07 12:03:15;;;;;;;3.83;2.70;;;13.30;99.90;;;;;;4936193;29;20071;-85
2021/10/07 12:05:42;;;;;;;2.70;2.50;;;13.10;99.90;;;;;;4939409;28;20030;-86
2021/10/07 12:08:12;;;;;;;2.95;2.65;;;13.10;99.90;;;;;;4939288;28;20096;-86
2021/10/07 12:10:41;;;;;;;2.95;2.65;;;13.00;99.90;;;;;;4922978;28;20042;-86
2021/10/07 12:13:10;;;;;;;4.22;2.80;;;13.00;99.90;;;;;;4925547;28;20031;-86
2021/10/07 12:15:42;;;;;;;3.13;2.65;;;13.00;99.90;;;;;;4938275;28;20516;-86
2021/10/07 12:18:09;;;;;;;2.72;2.53;;;13.10;99.90;;;;;;4944388;28;20093;-86
2021/10/07 12:20:35;;;;;;;3.03;2.47;;;13.20;99.90;;;;;;4934599;28;20150;-86
2021/10/07 12:23:02;;;;;;;2.78;1.90;;;13.30;99.90;;;;;;4942507;29;20117;-85
2021/10/07 12:25:38;;;;;;;2.38;2.15;;;13.50;99.90;;;;;;4939963;28;20166;-85
2021/10/07 12:28:04;;;;;;;1.50;1.40;;;13.70;99.90;;;;;;4939123;28;20142;-85
2021/10/07 12:30:29;;;;;;;2.88;1.67;;;13.90;99.90;;;;;;4942849;28;20098;-86
2021/10/07 12:33:14;;;;;;;1.38;1.08;;;14.10;99.90;;;;;;4939479;28;20035;-85
2021/10/07 12:36:06;;;;;;;2.00;1.70;;;14.30;99.90;;;;;;4899889;29;20035;-86
2021/10/07 12:38:52;;;;;;;2.10;1.70;;;14.40;99.90;;;;;;4939247;28;20636;-86
2021/10/07 12:41:40;;;;;;;1.70;1.55;;;14.50;99.90;;;;;;4921435;29;20035;-86
2021/10/07 12:44:16;;;;;;;4.18;2.38;;;14.50;99.90;;;;;;4923938;29;20043;-86
2021/10/07 12:46:45;;;;;;;1.35;1.25;;;14.50;99.90;;;;;;4958459;28;20046;-86
2021/10/07 12:49:11;;;;;;;1.83;1.55;;;14.60;99.90;;;;;;4939040;28;20039;-86
2021/10/07 12:51:43;;;;;;;2.55;1.60;;;14.60;99.90;;;;;;4938097;29;20035;-86
2021/10/07 12:54:14;;;;;;;2.30;1.58;;;14.70;99.90;;;;;;4939836;28;20405;-85
2021/10/07 12:56:41;;;;;;;1.58;1.38;;;14.80;99.90;;;;;;4975362;28;20054;-86
2021/10/07 12:59:07;;;;;;;2.45;1.20;;;14.80;99.90;;;;;;4922750;29;20063;-86
2021/10/07 13:01:45;;;;;;;1.63;1.27;;;14.80;99.90;;;;;;4941914;28;20425;-86